createdAt,value
2022-12-18T00:02:15.885Z,5.00
2022-12-18T00:04:42.655Z,3.40
2022-12-18T00:07:09.514Z,2.70
2022-12-18T00:09:39.573Z,4.70
2022-12-18T00:14:44.581Z,4.20
2022-12-18T00:17:11.305Z,7.80
2022-12-18T00:19:37.993Z,5.70
2022-12-18T00:22:04.753Z,7.90
2022-12-18T00:24:31.613Z,5.70
2022-12-18T00:26:58.334Z,5.40
2022-12-18T00:29:25.122Z,4.30
2022-12-18T00:31:51.907Z,4.50
2022-12-18T00:34:18.948Z,5.10
2022-12-18T00:36:48.969Z,4.60
2022-12-18T00:39:15.777Z,4.40
2022-12-18T00:42:03.238Z,4.50
2022-12-18T00:44:31.411Z,4.80
2022-12-18T00:46:58.137Z,5.20
2022-12-18T00:49:24.962Z,5.10
2022-12-18T00:51:51.705Z,5.00
2022-12-18T00:54:21.328Z,5.00
2022-12-18T00:56:49.867Z,4.80
2022-12-18T00:59:19.109Z,4.10
2022-12-18T01:01:46.530Z,5.10
2022-12-18T01:04:13.930Z,4.80
2022-12-18T01:06:41.297Z,4.50
2022-12-18T01:09:08.131Z,5.10
2022-12-18T01:11:37.356Z,4.10
2022-12-18T01:16:32.209Z,8.00
2022-12-18T01:18:59.111Z,5.20
2022-12-18T01:21:28.154Z,4.50
2022-12-18T01:23:56.545Z,8.90
2022-12-18T01:26:25.684Z,6.30
2022-12-18T01:28:52.903Z,5.80
2022-12-18T01:31:23.564Z,5.60
2022-12-18T01:33:51.601Z,4.20
2022-12-18T01:36:21.929Z,5.60
2022-12-18T01:38:49.261Z,5.10
2022-12-18T01:41:18.665Z,3.40
2022-12-18T01:43:56.090Z,4.30
2022-12-18T01:46:24.767Z,3.80
2022-12-18T01:49:02.442Z,7.40
2022-12-18T01:51:31.882Z,4.90
2022-12-18T01:54:00.603Z,4.30
2022-12-18T01:56:27.824Z,4.20
2022-12-18T01:59:00.916Z,5.20
2022-12-18T02:01:29.992Z,4.10
2022-12-18T02:03:57.540Z,3.50
2022-12-18T02:06:28.701Z,3.20
2022-12-18T02:09:25.874Z,4.00
2022-12-18T02:12:22.310Z,3.60
2022-12-18T02:15:39.831Z,4.00
2022-12-18T02:21:28.354Z,3.50
2022-12-18T02:24:19.211Z,4.20
2022-12-18T02:26:52.672Z,4.80
2022-12-18T02:29:29.922Z,5.60
2022-12-18T02:32:03.348Z,4.20
2022-12-18T02:34:33.642Z,4.30
2022-12-18T02:39:31.978Z,3.80
2022-12-18T02:42:08.698Z,3.70
2022-12-18T02:44:43.284Z,3.90
2022-12-18T02:47:13.653Z,4.30
2022-12-18T02:49:44.225Z,4.50
2022-12-18T02:52:40.072Z,3.30
2022-12-18T02:55:07.082Z,3.70
2022-12-18T02:57:36.866Z,4.50
2022-12-18T03:00:19.609Z,3.70
2022-12-18T03:02:56.781Z,4.00
2022-12-18T03:05:39.629Z,4.50
2022-12-18T03:08:13.430Z,3.40
2022-12-18T03:10:51.959Z,3.80
2022-12-18T03:13:29.616Z,5.00
2022-12-18T03:15:59.462Z,3.90
2022-12-18T03:18:31.585Z,3.80
2022-12-18T03:21:04.136Z,5.20
2022-12-18T03:23:40.691Z,4.10
2022-12-18T03:26:12.690Z,4.20
2022-12-18T03:28:47.019Z,4.30
2022-12-18T03:33:52.352Z,4.00
2022-12-18T03:36:19.545Z,4.40
2022-12-18T03:38:46.370Z,3.40
2022-12-18T03:41:36.643Z,3.30
2022-12-18T03:44:41.291Z,4.30
2022-12-18T03:47:11.300Z,3.10
2022-12-18T03:49:54.239Z,4.60
2022-12-18T03:52:37.335Z,4.90
2022-12-18T03:55:08.173Z,5.40
2022-12-18T03:57:35.801Z,4.70
2022-12-18T04:00:09.446Z,5.20
2022-12-18T04:02:55.080Z,5.50
2022-12-18T04:05:28.285Z,3.80
2022-12-18T04:07:57.674Z,3.90
2022-12-18T04:10:24.726Z,3.90
2022-12-18T04:12:51.853Z,6.30
2022-12-18T04:15:19.306Z,4.20
2022-12-18T04:17:50.470Z,4.30
2022-12-18T04:20:19.845Z,4.70
2022-12-18T04:22:46.765Z,6.50
2022-12-18T04:25:14.275Z,4.80
2022-12-18T04:27:52.332Z,8.20
2022-12-18T04:30:19.057Z,4.20
2022-12-18T04:32:51.912Z,4.90
2022-12-18T04:35:19.701Z,3.90
2022-12-18T04:37:47.436Z,4.80
2022-12-18T04:40:15.565Z,4.10
2022-12-18T04:42:44.423Z,3.50
2022-12-18T04:45:11.391Z,3.70
2022-12-18T04:47:38.150Z,4.50
2022-12-18T04:50:05.472Z,3.40
2022-12-18T04:52:32.171Z,4.30
2022-12-18T04:54:58.872Z,3.60
2022-12-18T04:57:25.627Z,3.80
2022-12-18T04:59:52.341Z,5.10
2022-12-18T05:02:20.534Z,3.50
2022-12-18T05:04:47.347Z,4.40
2022-12-18T05:07:14.029Z,4.10
2022-12-18T05:09:40.804Z,3.90
2022-12-18T05:12:08.597Z,4.40
2022-12-18T05:14:35.359Z,3.30
2022-12-18T05:17:02.068Z,3.70
2022-12-18T05:19:28.836Z,7.30
2022-12-18T05:21:55.544Z,6.80
2022-12-18T05:24:22.272Z,9.70
2022-12-18T05:26:49.000Z,6.20
2022-12-18T05:29:15.758Z,5.40
2022-12-18T05:31:43.116Z,4.00
2022-12-18T05:34:10.388Z,5.80
2022-12-18T05:36:38.158Z,5.40
2022-12-18T05:39:04.899Z,6.20
2022-12-18T05:41:33.082Z,4.80
2022-12-18T05:44:00.242Z,6.20
2022-12-18T05:46:27.143Z,11.40
2022-12-18T05:48:53.951Z,12.30
2022-12-18T05:51:22.803Z,5.90
2022-12-18T05:53:49.559Z,6.00
2022-12-18T05:56:19.463Z,6.50
2022-12-18T05:58:47.344Z,4.90
2022-12-18T06:01:18.036Z,5.60
2022-12-18T06:03:45.796Z,6.60
2022-12-18T06:06:25.083Z,6.20
2022-12-18T06:08:52.737Z,7.80
2022-12-18T06:11:25.756Z,7.10
2022-12-18T06:13:58.273Z,6.60
2022-12-18T06:16:27.437Z,6.70
2022-12-18T06:18:56.972Z,6.10
2022-12-18T06:21:23.780Z,7.20
2022-12-18T06:23:50.483Z,6.10
2022-12-18T06:26:17.228Z,6.00
2022-12-18T06:28:43.994Z,5.70
2022-12-18T06:31:11.210Z,6.00
2022-12-18T06:33:39.077Z,9.30
2022-12-18T06:36:09.219Z,5.50
2022-12-18T06:38:38.123Z,6.90
2022-12-18T06:41:10.065Z,7.60
2022-12-18T06:43:37.826Z,5.70
2022-12-18T06:46:06.451Z,6.30
2022-12-18T06:48:34.263Z,8.60
2022-12-18T06:51:01.466Z,8.80
2022-12-18T06:53:28.596Z,8.60
2022-12-18T06:56:09.175Z,7.40
2022-12-18T06:58:36.969Z,6.30
2022-12-18T07:01:05.727Z,5.60
2022-12-18T07:03:32.860Z,7.50
2022-12-18T07:05:59.682Z,6.50
2022-12-18T07:08:26.361Z,6.10
2022-12-18T07:10:56.466Z,7.00
2022-12-18T07:13:24.241Z,6.70
2022-12-18T07:15:50.964Z,6.10
2022-12-18T07:18:17.701Z,7.00
2022-12-18T07:20:45.226Z,5.30
2022-12-18T07:23:12.828Z,6.90
2022-12-18T07:25:40.543Z,7.90
2022-12-18T07:30:34.434Z,6.80
2022-12-18T07:33:01.263Z,7.90
2022-12-18T07:35:27.982Z,6.30
2022-12-18T07:37:54.735Z,7.40
2022-12-18T07:40:21.598Z,6.20
2022-12-18T07:42:48.339Z,6.20
2022-12-18T07:45:15.160Z,6.30
2022-12-18T07:47:42.350Z,5.80
2022-12-18T07:50:09.280Z,7.00
2022-12-18T07:52:36.118Z,8.60
2022-12-18T07:55:03.838Z,6.30
2022-12-18T08:05:11.543Z,7.10
2022-12-18T08:07:38.264Z,6.90
2022-12-18T08:10:05.355Z,7.60
2022-12-18T08:12:33.207Z,7.80
2022-12-18T08:14:59.885Z,7.50
2022-12-18T08:17:26.616Z,5.30
2022-12-18T08:19:53.370Z,6.80
2022-12-18T08:22:20.090Z,8.60
2022-12-18T08:24:46.803Z,7.00
2022-12-18T08:27:29.065Z,7.00
2022-12-18T08:29:57.609Z,7.00
2022-12-18T08:32:25.753Z,5.80
2022-12-18T08:34:52.547Z,7.30
2022-12-18T08:37:19.274Z,6.50
2022-12-18T08:39:46.149Z,10.70
2022-12-18T08:42:31.635Z,7.30
2022-12-18T08:44:58.334Z,7.50
2022-12-18T08:47:25.188Z,11.60
2022-12-18T08:49:51.883Z,7.50
2022-12-18T08:52:18.695Z,9.40
2022-12-18T08:54:45.621Z,9.70
2022-12-18T08:57:12.296Z,12.90
2022-12-18T08:59:38.991Z,9.50
2022-12-18T09:02:05.837Z,9.90
2022-12-18T09:04:32.761Z,9.50
2022-12-18T09:06:59.448Z,10.70
2022-12-18T09:09:26.149Z,13.90
2022-12-18T09:11:52.947Z,9.50
2022-12-18T09:14:19.662Z,8.80
2022-12-18T09:16:46.474Z,10.90
2022-12-18T09:19:13.339Z,10.40
2022-12-18T09:21:43.374Z,9.80
2022-12-18T09:24:14.988Z,9.60
2022-12-18T09:26:41.772Z,10.80
2022-12-18T09:29:10.510Z,6.80
2022-12-18T09:31:39.209Z,9.00
2022-12-18T09:34:06.050Z,7.70
2022-12-18T09:36:32.742Z,7.90
2022-12-18T09:39:03.730Z,8.80
2022-12-18T09:41:48.367Z,9.30
2022-12-18T09:44:23.430Z,8.30
2022-12-18T09:47:19.895Z,9.50
2022-12-18T09:49:56.117Z,7.20
2022-12-18T09:52:46.819Z,8.20
2022-12-18T09:55:37.261Z,7.40
2022-12-18T09:58:10.534Z,9.90
2022-12-18T10:00:37.625Z,10.50
2022-12-18T10:03:13.549Z,11.10
2022-12-18T10:06:17.946Z,8.30
2022-12-18T10:08:59.074Z,6.80
2022-12-18T10:11:44.348Z,7.60
2022-12-18T10:14:24.570Z,8.00
2022-12-18T10:17:00.663Z,9.30
2022-12-18T10:19:50.302Z,7.50
2022-12-18T10:22:35.891Z,7.30
2022-12-18T10:25:19.713Z,6.30
2022-12-18T10:27:46.557Z,8.40
2022-12-18T10:30:20.225Z,8.20
2022-12-18T10:32:46.998Z,8.90
2022-12-18T10:35:24.206Z,8.90
2022-12-18T10:38:07.875Z,9.30
2022-12-18T10:40:49.597Z,9.00
2022-12-18T10:43:21.381Z,8.20
2022-12-18T10:46:21.620Z,8.10
2022-12-18T10:48:51.231Z,8.90
2022-12-18T10:51:27.084Z,7.90
2022-12-18T10:54:06.923Z,10.20
2022-12-18T10:56:38.004Z,7.30
2022-12-18T10:59:07.850Z,8.50
2022-12-18T11:01:56.072Z,6.90
2022-12-18T11:04:32.257Z,7.40
2022-12-18T11:07:04.454Z,8.00
2022-12-18T11:09:33.926Z,6.70
2022-12-18T11:12:04.679Z,7.30
2022-12-18T11:14:46.816Z,7.30
2022-12-18T11:17:26.527Z,8.60
2022-12-18T11:19:56.503Z,7.10
2022-12-18T11:22:29.718Z,8.00
2022-12-18T11:28:35.420Z,8.10
2022-12-18T11:31:32.413Z,8.10
2022-12-18T11:34:34.269Z,7.20
2022-12-18T11:37:04.495Z,7.50
2022-12-18T11:39:41.589Z,6.60
2022-12-18T11:42:42.793Z,9.70
2022-12-18T11:45:35.352Z,8.60
2022-12-18T11:48:13.948Z,7.90
2022-12-18T11:50:58.036Z,8.60
2022-12-18T11:53:27.179Z,10.50
2022-12-18T11:56:02.820Z,8.60
2022-12-18T11:58:57.234Z,6.40
2022-12-18T12:01:50.169Z,7.40
2022-12-18T12:04:25.945Z,6.60
2022-12-18T12:07:11.593Z,6.40
2022-12-18T12:09:47.057Z,8.00
2022-12-18T12:12:22.807Z,7.70
2022-12-18T12:15:14.203Z,7.50
2022-12-18T12:17:54.205Z,8.20
2022-12-18T12:20:48.910Z,9.50
2022-12-18T12:23:33.361Z,8.30
2022-12-18T12:26:12.112Z,9.50
2022-12-18T12:28:45.023Z,10.50
2022-12-18T12:31:47.110Z,12.50
2022-12-18T12:34:23.990Z,9.10
2022-12-18T12:36:53.511Z,9.30
2022-12-18T12:39:28.227Z,10.00
2022-12-18T12:42:14.587Z,10.60
2022-12-18T12:44:51.250Z,9.00
2022-12-18T12:47:33.999Z,10.30
2022-12-18T12:50:07.994Z,9.50
2022-12-18T12:52:41.029Z,11.00
2022-12-18T12:55:17.105Z,9.40
2022-12-18T12:58:37.222Z,10.50
2022-12-18T13:01:42.279Z,10.20
2022-12-18T13:04:34.564Z,9.80
2022-12-18T13:07:27.129Z,8.50
2022-12-18T13:10:22.408Z,11.40
2022-12-18T13:13:11.044Z,11.30
2022-12-18T13:15:46.796Z,12.50
2022-12-18T13:18:19.531Z,11.10
2022-12-18T13:21:01.556Z,10.20
2022-12-18T13:23:37.518Z,9.20
2022-12-18T13:26:07.376Z,11.00
2022-12-18T13:28:34.338Z,10.60
2022-12-18T13:31:02.767Z,10.00
2022-12-18T13:33:29.898Z,10.20
2022-12-18T13:36:34.775Z,11.60
2022-12-18T13:39:28.659Z,10.40
2022-12-18T13:42:05.409Z,10.10
2022-12-18T13:47:39.069Z,9.90
2022-12-18T13:50:28.687Z,9.80
2022-12-18T13:52:59.480Z,9.10
2022-12-18T13:55:26.546Z,9.40
2022-12-18T13:58:05.741Z,8.90
2022-12-18T14:00:32.804Z,9.20
2022-12-18T14:03:00.833Z,7.50
2022-12-18T14:05:38.777Z,9.90
2022-12-18T14:08:12.470Z,8.20
2022-12-18T14:10:49.747Z,9.20
2022-12-18T14:13:27.535Z,9.70
2022-12-18T14:15:54.964Z,9.70
2022-12-18T14:20:57.778Z,8.20
2022-12-18T14:23:36.576Z,7.70
2022-12-18T14:26:24.586Z,7.50
2022-12-18T14:28:51.928Z,8.00
2022-12-18T14:31:21.265Z,8.60
2022-12-18T14:33:48.714Z,9.10
2022-12-18T14:36:21.950Z,9.00
2022-12-18T14:38:51.321Z,8.90
2022-12-18T14:41:20.259Z,7.30
2022-12-18T14:43:50.197Z,7.40
2022-12-18T14:46:36.755Z,8.30
2022-12-18T14:49:18.924Z,9.40
2022-12-18T14:51:57.680Z,10.60
2022-12-18T14:54:26.171Z,7.90
2022-12-18T14:57:15.812Z,10.10
2022-12-18T14:59:42.587Z,11.50
2022-12-18T15:02:23.051Z,8.70
2022-12-18T15:05:12.951Z,8.70
2022-12-18T15:07:48.925Z,8.40
2022-12-18T15:10:15.622Z,12.00
2022-12-18T15:12:44.997Z,12.10
2022-12-18T15:15:33.748Z,11.80
2022-12-18T15:18:01.439Z,9.60
2022-12-18T15:25:38.311Z,10.40
2022-12-18T15:28:22.714Z,12.30
2022-12-18T15:31:19.840Z,13.60
2022-12-18T15:34:10.428Z,12.90
2022-12-18T15:36:37.591Z,12.60
2022-12-18T15:39:06.819Z,11.00
2022-12-18T15:41:36.544Z,14.20
2022-12-18T15:44:16.582Z,10.90
2022-12-18T15:46:43.304Z,10.60
2022-12-18T15:49:10.077Z,13.10
2022-12-18T15:51:38.457Z,10.80
2022-12-18T15:54:10.325Z,10.50
2022-12-18T15:56:55.702Z,13.30
2022-12-18T15:59:24.000Z,8.00
2022-12-18T16:01:53.989Z,9.10
2022-12-18T16:04:22.967Z,9.90
2022-12-18T16:07:13.721Z,9.30
2022-12-18T16:09:38.023Z,9.90
2022-12-18T16:12:05.670Z,10.60
2022-12-18T16:14:32.948Z,8.90
2022-12-18T16:17:02.538Z,11.10
2022-12-18T16:19:29.977Z,9.70
2022-12-18T16:21:59.043Z,11.90
2022-12-18T16:24:28.048Z,9.80
2022-12-18T16:26:56.737Z,9.00
2022-12-18T16:29:27.813Z,12.10
2022-12-18T16:31:59.249Z,8.90
2022-12-18T16:34:29.260Z,9.10
2022-12-18T16:37:05.607Z,8.60
2022-12-18T16:39:37.468Z,9.80
2022-12-18T16:42:15.483Z,10.70
2022-12-18T16:44:42.928Z,9.00
2022-12-18T16:47:10.440Z,8.70
2022-12-18T16:49:40.196Z,8.50
2022-12-18T16:52:08.176Z,12.00
2022-12-18T16:54:36.651Z,10.40
2022-12-18T16:57:05.498Z,11.80
2022-12-18T16:59:32.753Z,11.30
2022-12-18T17:01:59.668Z,12.90
2022-12-18T17:04:26.541Z,9.50
2022-12-18T17:06:53.981Z,13.10
2022-12-18T17:09:28.371Z,10.70
2022-12-18T17:11:55.238Z,10.10
2022-12-18T17:14:24.143Z,10.70
2022-12-18T17:17:19.371Z,8.60
2022-12-18T17:19:38.786Z,10.90
2022-12-18T17:22:05.615Z,11.50
2022-12-18T17:24:35.177Z,11.40
2022-12-18T17:27:03.128Z,12.60
2022-12-18T17:31:57.273Z,8.80
2022-12-18T17:34:25.554Z,13.40
2022-12-18T17:36:52.340Z,14.70
2022-12-18T17:39:20.903Z,10.30
2022-12-18T17:41:48.895Z,13.20
2022-12-18T17:44:16.794Z,11.90
2022-12-18T17:46:46.236Z,15.30
2022-12-18T17:49:14.248Z,16.10
2022-12-18T17:51:43.178Z,11.90
2022-12-18T17:54:11.117Z,9.70
2022-12-18T17:56:38.465Z,11.20
2022-12-18T17:59:05.394Z,10.70
2022-12-18T18:01:32.335Z,16.00
2022-12-18T18:04:00.711Z,16.80
2022-12-18T18:06:28.304Z,13.60
2022-12-18T18:08:57.017Z,11.60
2022-12-18T18:11:43.850Z,12.70
2022-12-18T18:14:17.342Z,14.50
2022-12-18T18:16:49.379Z,12.50
2022-12-18T18:19:19.291Z,14.40
2022-12-18T18:21:48.295Z,12.50
2022-12-18T18:24:18.420Z,12.90
2022-12-18T18:26:46.780Z,13.30
2022-12-18T18:29:20.838Z,16.10
2022-12-18T18:31:48.549Z,12.70
2022-12-18T18:36:47.224Z,13.40
2022-12-18T18:39:14.970Z,11.50
2022-12-18T18:41:42.240Z,13.20
2022-12-18T18:44:14.427Z,13.30
2022-12-18T18:46:41.220Z,11.60
2022-12-18T18:49:07.993Z,12.20
2022-12-18T18:51:35.423Z,12.30
2022-12-18T18:54:02.845Z,13.10
2022-12-18T18:59:18.409Z,12.70
2022-12-18T19:01:45.484Z,12.10
2022-12-18T19:04:12.720Z,20.10
2022-12-18T19:06:39.712Z,12.80
2022-12-18T19:09:07.478Z,17.40
2022-12-18T19:11:53.059Z,14.90
2022-12-18T19:14:20.471Z,14.70
2022-12-18T19:16:47.266Z,16.40
2022-12-18T19:19:14.217Z,16.00
2022-12-18T19:21:41.188Z,13.90
2022-12-18T19:24:09.554Z,15.80
2022-12-18T19:26:38.643Z,17.90
2022-12-18T19:29:08.033Z,17.40
2022-12-18T19:31:36.771Z,15.90
2022-12-18T19:34:08.313Z,17.10
2022-12-18T19:36:38.563Z,16.90
2022-12-18T19:39:17.261Z,15.90
2022-12-18T19:41:44.697Z,15.70
2022-12-18T19:44:17.128Z,15.10
2022-12-18T19:46:46.228Z,15.30
2022-12-18T19:49:17.537Z,12.80
2022-12-18T19:51:45.500Z,12.90
2022-12-18T19:54:17.114Z,11.20
2022-12-18T19:56:45.645Z,14.40
2022-12-18T19:59:12.855Z,13.00
2022-12-18T20:01:40.385Z,11.60
2022-12-18T20:04:07.451Z,14.90
2022-12-18T20:06:36.942Z,14.40
2022-12-18T20:09:06.640Z,11.40
2022-12-18T20:11:38.826Z,13.10
2022-12-18T20:14:08.989Z,11.60
2022-12-18T20:16:36.053Z,14.20
2022-12-18T20:19:04.386Z,14.10
2022-12-18T20:21:31.116Z,14.10
2022-12-18T20:23:59.952Z,14.30
2022-12-18T20:26:27.462Z,13.40
2022-12-18T20:28:55.057Z,13.90
2022-12-18T20:31:22.326Z,13.90
2022-12-18T20:33:51.111Z,15.30
2022-12-18T20:36:21.362Z,13.40
2022-12-18T20:38:54.725Z,12.50
2022-12-18T20:41:24.968Z,15.50
2022-12-18T20:43:52.016Z,11.60
2022-12-18T20:46:19.102Z,12.30
2022-12-18T20:48:46.305Z,12.80
2022-12-18T20:51:16.033Z,12.40
2022-12-18T20:53:43.660Z,13.00
2022-12-18T20:56:14.776Z,7.30
2022-12-18T20:58:45.633Z,13.10
2022-12-18T21:01:18.030Z,15.40
2022-12-18T21:03:48.799Z,14.20
2022-12-18T21:06:18.476Z,11.80
2022-12-18T21:08:45.242Z,13.90
2022-12-18T21:11:40.024Z,13.60
2022-12-18T21:14:10.846Z,11.80
2022-12-18T21:16:38.090Z,14.50
2022-12-18T21:19:04.825Z,14.70
2022-12-18T21:21:37.804Z,12.50
2022-12-18T21:24:06.633Z,14.50
2022-12-18T21:29:05.056Z,11.90
2022-12-18T21:31:34.621Z,14.30
2022-12-18T21:34:02.634Z,12.20
2022-12-18T21:36:31.466Z,12.20
2022-12-18T21:38:59.162Z,13.40
2022-12-18T21:41:46.205Z,15.40
2022-12-18T21:44:17.971Z,10.10
2022-12-18T21:46:52.821Z,11.50
2022-12-18T21:49:23.604Z,12.50
2022-12-18T21:51:52.970Z,11.40
2022-12-18T21:54:20.566Z,12.50
2022-12-18T21:56:57.583Z,11.20
2022-12-18T21:59:33.361Z,16.60
2022-12-18T22:02:03.400Z,12.50
2022-12-18T22:04:30.361Z,12.90
2022-12-18T22:06:57.257Z,16.80
2022-12-18T22:09:25.552Z,17.10
2022-12-18T22:11:53.783Z,16.30
2022-12-18T22:14:21.825Z,13.10
2022-12-18T22:16:49.133Z,15.10
2022-12-18T22:19:16.962Z,15.30
2022-12-18T22:21:48.721Z,15.90
2022-12-18T22:24:18.738Z,11.40
2022-12-18T22:26:47.111Z,13.70
2022-12-18T22:29:38.324Z,13.50
2022-12-18T22:32:07.078Z,12.20
2022-12-18T22:34:36.848Z,18.90
2022-12-18T22:37:06.653Z,11.60
2022-12-18T22:39:34.632Z,17.30
2022-12-18T22:42:02.417Z,13.90
2022-12-18T22:44:29.575Z,14.70
2022-12-18T22:47:06.203Z,13.40
2022-12-18T22:49:35.368Z,11.40
2022-12-18T22:52:03.852Z,13.70
2022-12-18T22:54:30.592Z,14.50
2022-12-18T22:56:57.399Z,12.00
2022-12-18T22:59:24.330Z,10.90
2022-12-18T23:01:55.412Z,12.70
2022-12-18T23:04:34.272Z,12.90
2022-12-18T23:07:06.785Z,10.80
2022-12-18T23:09:33.782Z,11.60
2022-12-18T23:12:01.528Z,11.10
2022-12-18T23:16:55.568Z,8.40
2022-12-18T23:19:23.729Z,7.40
2022-12-18T23:21:51.461Z,11.80
2022-12-18T23:24:18.290Z,10.90
2022-12-18T23:26:45.127Z,9.90
2022-12-18T23:29:11.824Z,10.70
2022-12-18T23:31:39.637Z,12.20
2022-12-18T23:34:08.815Z,10.70
2022-12-18T23:36:45.694Z,10.50
2022-12-18T23:39:28.504Z,10.30
2022-12-18T23:42:00.974Z,12.00
2022-12-18T23:44:27.926Z,10.60
2022-12-18T23:46:55.115Z,10.70
2022-12-18T23:49:22.125Z,13.00
2022-12-18T23:51:49.123Z,10.70
2022-12-18T23:54:16.280Z,9.60
2022-12-18T23:56:42.998Z,10.20
2022-12-18T23:59:09.935Z,10.10
